createdAt,value
2023-10-08T00:01:34.985Z,159201.75
2023-10-08T00:04:05.910Z,159201.75
2023-10-08T00:06:34.699Z,159199.13
2023-10-08T00:09:08.979Z,159203.09
2023-10-08T00:11:37.801Z,159201.75
2023-10-08T00:14:22.966Z,159209.75
2023-10-08T00:16:51.488Z,159205.78
2023-10-08T00:19:20.149Z,159185.75
2023-10-08T00:21:49.730Z,159200.44
2023-10-08T00:24:17.530Z,159197.78
2023-10-08T00:26:45.836Z,159197.78
2023-10-08T00:29:16.767Z,159204.41
2023-10-08T00:31:47.274Z,159184.44
2023-10-08T00:34:15.955Z,159195.09
2023-10-08T00:36:49.287Z,159189.75
2023-10-08T00:39:24.269Z,159196.41
2023-10-08T00:42:01.034Z,159177.78
2023-10-08T00:44:37.182Z,159192.44
2023-10-08T00:47:06.847Z,159195.09
2023-10-08T00:49:47.212Z,159201.75
2023-10-08T00:52:16.178Z,159203.09
2023-10-08T00:55:03.648Z,159203.09
2023-10-08T00:57:35.937Z,159199.13
2023-10-08T01:00:07.780Z,159183.06
2023-10-08T01:02:50.236Z,159180.41
2023-10-08T01:05:27.673Z,159179.09
2023-10-08T01:07:57.311Z,159189.75
2023-10-08T01:10:26.315Z,159179.09
2023-10-08T01:13:06.717Z,159179.09
2023-10-08T01:15:37.302Z,159181.75
2023-10-08T01:18:08.480Z,159188.41
2023-10-08T01:20:39.476Z,159183.06
2023-10-08T01:23:15.040Z,159189.75
2023-10-08T01:25:44.333Z,159181.75
2023-10-08T01:28:16.717Z,159169.78
2023-10-08T01:30:48.081Z,159181.75
2023-10-08T01:33:19.259Z,159176.41
2023-10-08T01:35:47.020Z,159172.41
2023-10-08T01:38:15.452Z,159184.44
2023-10-08T01:40:43.368Z,159176.41
2023-10-08T01:43:14.927Z,159181.75
2023-10-08T01:45:44.808Z,159187.09
2023-10-08T01:48:13.278Z,159181.75
2023-10-08T01:50:41.244Z,159191.13
2023-10-08T01:53:12.661Z,159171.09
2023-10-08T01:55:50.396Z,159185.75
2023-10-08T01:58:19.007Z,159175.06
2023-10-08T02:00:47.762Z,159168.41
2023-10-08T02:03:19.735Z,159171.09
2023-10-08T02:05:48.245Z,159164.44
2023-10-08T02:08:18.648Z,159168.41
2023-10-08T02:10:49.681Z,159160.41
2023-10-08T02:13:17.825Z,159152.41
2023-10-08T02:15:47.388Z,159165.75
2023-10-08T02:18:15.409Z,159163.09
2023-10-08T02:20:44.807Z,159169.78
2023-10-08T02:23:13.440Z,159161.72
2023-10-08T02:25:42.180Z,159165.75
2023-10-08T02:28:11.404Z,159160.41
2023-10-08T02:30:40.486Z,159171.09
2023-10-08T02:33:21.599Z,159171.09
2023-10-08T02:35:50.982Z,159176.41
2023-10-08T02:38:20.033Z,159173.75
2023-10-08T02:40:50.250Z,159187.09
2023-10-08T02:43:19.144Z,159189.75
2023-10-08T02:45:51.626Z,159195.09
2023-10-08T02:48:22.051Z,159196.41
2023-10-08T02:50:50.691Z,159201.75
2023-10-08T02:53:25.180Z,159209.75
2023-10-08T02:55:53.689Z,159208.44
2023-10-08T02:58:21.452Z,159208.44
2023-10-08T03:00:50.609Z,159200.44
2023-10-08T03:03:23.965Z,159180.41
2023-10-08T03:05:58.380Z,159192.44
2023-10-08T03:08:26.699Z,159195.09
2023-10-08T03:11:03.674Z,159184.44
2023-10-08T03:13:32.317Z,159189.75
2023-10-08T03:16:03.202Z,159173.75
2023-10-08T03:18:37.724Z,159172.41
2023-10-08T03:21:24.194Z,159172.41
2023-10-08T03:23:58.517Z,159168.41
2023-10-08T03:26:32.978Z,159137.72
2023-10-08T03:29:19.451Z,159152.41
2023-10-08T03:31:50.323Z,159159.06
2023-10-08T03:34:28.548Z,159141.75
2023-10-08T03:37:07.409Z,159144.41
2023-10-08T03:39:53.807Z,159120.41
2023-10-08T03:42:25.395Z,159128.41
2023-10-08T03:44:55.143Z,159121.75
2023-10-08T03:47:27.781Z,159116.41
2023-10-08T03:49:57.052Z,159116.41
2023-10-08T03:52:27.258Z,159116.41
2023-10-08T03:55:14.158Z,159089.72
2023-10-08T03:57:45.688Z,159084.38
2023-10-08T04:00:16.763Z,159061.69
2023-10-08T04:02:56.007Z,159065.72
2023-10-08T04:05:34.554Z,159055.03
2023-10-08T04:08:28.761Z,159040.38
2023-10-08T04:11:09.507Z,159023.06
2023-10-08T04:13:46.795Z,159024.38
2023-10-08T04:16:20.055Z,158977.69
2023-10-08T04:18:51.672Z,158971.03
2023-10-08T04:21:21.902Z,158965.72
2023-10-08T04:23:54.479Z,158956.34
2023-10-08T04:26:25.364Z,158928.34
2023-10-08T04:29:03.742Z,158907.03
2023-10-08T04:31:39.296Z,158891.06
2023-10-08T04:34:28.474Z,158883.06
2023-10-08T04:36:59.031Z,158863.06
2023-10-08T04:39:40.740Z,158856.41
2023-10-08T04:42:12.270Z,158843.06
2023-10-08T04:44:40.923Z,158841.72
2023-10-08T04:47:32.240Z,158825.75
2023-10-08T04:50:00.819Z,158816.38
2023-10-08T04:52:29.515Z,158804.44
2023-10-08T04:54:57.936Z,158795.06
2023-10-08T04:57:27.235Z,158791.09
2023-10-08T04:59:59.021Z,158769.72
2023-10-08T05:02:52.188Z,158747.03
2023-10-08T05:05:19.962Z,158745.72
2023-10-08T05:07:48.206Z,158725.72
2023-10-08T05:10:28.704Z,158731.06
2023-10-08T05:13:17.249Z,158715.09
2023-10-08T05:16:03.851Z,158713.75
2023-10-08T05:18:52.074Z,158693.78
2023-10-08T05:21:52.098Z,158719.06
2023-10-08T05:24:29.058Z,158713.75
2023-10-08T05:27:10.297Z,158709.75
2023-10-08T05:29:53.602Z,158711.06
2023-10-08T05:32:40.020Z,158720.44
2023-10-08T05:35:27.330Z,158745.72
2023-10-08T05:38:14.026Z,158768.34
2023-10-08T05:41:03.079Z,158801.72
2023-10-08T05:43:36.822Z,158845.69
2023-10-08T05:46:27.315Z,158883.06
2023-10-08T05:49:16.658Z,158909.72
2023-10-08T05:51:48.756Z,158941.69
2023-10-08T05:54:31.182Z,158967.06
2023-10-08T05:57:26.367Z,159015.06
2023-10-08T05:59:54.475Z,159032.38
2023-10-08T06:02:45.554Z,159063.03
2023-10-08T06:05:15.280Z,159053.69
2023-10-08T06:07:54.663Z,159060.38
2023-10-08T06:10:35.963Z,159104.38
2023-10-08T06:13:11.613Z,159136.41
2023-10-08T06:16:05.984Z,159163.09
2023-10-08T06:18:35.028Z,159179.09
2023-10-08T06:21:17.004Z,159201.75
2023-10-08T06:23:44.988Z,159171.09
2023-10-08T06:26:12.668Z,159153.72
2023-10-08T06:28:43.093Z,159141.75
2023-10-08T06:31:18.098Z,159147.06
2023-10-08T06:33:46.732Z,159184.44
2023-10-08T06:36:15.087Z,159161.72
2023-10-08T06:38:45.706Z,159145.72
2023-10-08T06:41:14.405Z,159161.72
2023-10-08T06:43:44.914Z,159159.06
2023-10-08T06:46:15.476Z,159163.09
2023-10-08T06:48:43.670Z,159133.72
2023-10-08T06:51:14.818Z,159169.78
2023-10-08T06:53:47.596Z,159203.09
2023-10-08T06:56:16.437Z,159171.09
2023-10-08T06:58:50.775Z,159139.06
2023-10-08T07:01:40.230Z,159111.03
2023-10-08T07:04:13.960Z,159147.06
2023-10-08T07:06:46.516Z,159148.38
2023-10-08T07:09:27.936Z,159171.09
2023-10-08T07:11:57.757Z,159157.75
2023-10-08T07:14:30.539Z,159131.06
2023-10-08T07:17:01.047Z,159139.06
2023-10-08T07:19:34.638Z,159185.75
2023-10-08T07:22:05.056Z,159185.75
2023-10-08T07:24:38.525Z,159184.44
2023-10-08T07:27:10.439Z,159219.13
2023-10-08T07:29:38.826Z,159233.81
2023-10-08T07:32:13.208Z,159248.47
2023-10-08T07:34:42.056Z,159239.09
2023-10-08T07:37:12.762Z,159212.47
2023-10-08T07:39:56.124Z,159244.44
2023-10-08T07:42:23.967Z,159284.56
2023-10-08T07:44:55.671Z,159273.84
2023-10-08T07:47:23.459Z,159297.91
2023-10-08T07:49:53.608Z,159301.88
2023-10-08T07:52:22.344Z,159252.44
2023-10-08T07:54:51.035Z,159247.16
2023-10-08T07:57:20.582Z,159228.47
2023-10-08T07:59:49.371Z,159229.78
2023-10-08T08:02:19.507Z,159267.13
2023-10-08T08:04:52.472Z,159267.13
2023-10-08T08:07:22.076Z,159279.19
2023-10-08T08:09:53.376Z,159241.81
2023-10-08T08:12:23.583Z,159255.16
2023-10-08T08:14:56.026Z,159257.81
2023-10-08T08:17:24.545Z,159265.81
2023-10-08T08:19:54.221Z,159324.59
2023-10-08T08:22:24.464Z,159329.91
2023-10-08T08:24:59.024Z,159328.56
2023-10-08T08:27:33.725Z,159359.25
2023-10-08T08:30:11.786Z,159389.97
2023-10-08T08:32:41.251Z,159380.59
2023-10-08T08:35:11.065Z,159376.63
2023-10-08T08:37:41.485Z,159371.28
2023-10-08T08:40:19.023Z,159368.63
2023-10-08T08:42:51.675Z,159397.97
2023-10-08T08:45:26.221Z,159408.63
2023-10-08T08:47:57.808Z,159448.69
2023-10-08T08:50:31.280Z,159479.38
2023-10-08T08:52:59.893Z,159389.97
2023-10-08T08:55:29.925Z,159436.66
2023-10-08T08:57:58.452Z,159462.06
2023-10-08T09:00:31.605Z,159368.63
2023-10-08T09:03:01.549Z,159356.59
2023-10-08T09:05:38.205Z,159319.25
2023-10-08T09:08:07.944Z,159353.94
2023-10-08T09:10:39.549Z,159392.63
2023-10-08T09:13:13.009Z,159416.69
2023-10-08T09:15:43.585Z,159361.94
2023-10-08T09:18:12.872Z,159344.56
2023-10-08T09:20:45.411Z,159333.94
2023-10-08T09:23:15.439Z,159343.25
2023-10-08T09:25:47.820Z,159315.22
2023-10-08T09:28:15.885Z,159312.56
2023-10-08T09:30:51.320Z,159331.22
2023-10-08T09:33:20.326Z,159333.94
2023-10-08T09:35:48.700Z,159357.94
2023-10-08T09:38:24.329Z,159367.31
2023-10-08T09:40:54.672Z,159391.31
2023-10-08T09:43:28.465Z,159416.69
2023-10-08T09:46:26.531Z,159361.94
2023-10-08T09:49:01.478Z,159379.28
2023-10-08T09:51:35.325Z,159379.28
2023-10-08T09:54:27.607Z,159400.63
2023-10-08T09:56:59.052Z,159380.59
2023-10-08T09:59:30.606Z,159432.69
2023-10-08T10:02:01.002Z,159427.34
2023-10-08T10:04:33.998Z,159472.75
2023-10-08T10:07:14.194Z,159439.38
2023-10-08T10:09:50.743Z,159411.34
2023-10-08T10:12:26.607Z,159401.97
2023-10-08T10:14:56.889Z,159430.00
2023-10-08T10:17:44.847Z,159428.66
2023-10-08T10:20:16.173Z,159431.38
2023-10-08T10:22:46.061Z,159385.97
2023-10-08T10:25:20.370Z,159372.59
2023-10-08T10:28:10.447Z,159428.66
2023-10-08T10:30:41.195Z,159446.03
2023-10-08T10:33:09.375Z,159431.38
2023-10-08T10:35:39.480Z,159407.31
2023-10-08T10:38:08.143Z,159418.00
2023-10-08T10:40:42.078Z,159420.66
2023-10-08T10:43:17.394Z,159448.69
2023-10-08T10:45:48.110Z,159476.72
2023-10-08T10:48:22.105Z,159510.13
2023-10-08T10:51:06.805Z,159472.75
2023-10-08T10:53:58.445Z,159496.78
2023-10-08T10:56:32.837Z,159494.13
2023-10-08T10:59:07.357Z,159515.47
2023-10-08T11:01:48.320Z,159510.13
2023-10-08T11:04:20.856Z,159499.41
2023-10-08T11:06:52.157Z,159531.50
2023-10-08T11:09:37.012Z,159539.50
2023-10-08T11:12:12.810Z,159550.19
2023-10-08T11:14:47.709Z,159578.19
2023-10-08T11:17:23.676Z,159590.22
2023-10-08T11:19:52.308Z,159580.91
2023-10-08T11:22:24.178Z,159599.63
2023-10-08T11:24:55.611Z,159634.28
2023-10-08T11:27:39.391Z,159606.25
2023-10-08T11:30:13.072Z,159579.56
2023-10-08T11:32:42.900Z,159562.19
2023-10-08T11:35:19.616Z,159563.50
2023-10-08T11:37:52.762Z,159556.81
2023-10-08T11:40:30.429Z,159544.84
2023-10-08T11:43:04.740Z,159568.88
2023-10-08T11:45:40.181Z,159552.84
2023-10-08T11:48:13.864Z,159530.16
2023-10-08T11:50:42.272Z,159496.78
2023-10-08T11:53:12.855Z,159544.84
2023-10-08T11:55:43.561Z,159582.22
2023-10-08T11:58:12.028Z,159516.81
2023-10-08T12:00:53.825Z,159512.78
2023-10-08T12:03:22.266Z,159548.81
2023-10-08T12:05:53.868Z,159608.94
2023-10-08T12:08:24.861Z,159675.69
2023-10-08T12:10:56.070Z,159711.81
2023-10-08T12:13:26.630Z,159690.44
2023-10-08T12:16:07.371Z,159637.00
2023-10-08T12:18:41.890Z,159653.00
2023-10-08T12:21:16.513Z,159659.69
2023-10-08T12:23:47.050Z,159632.97
2023-10-08T12:26:20.110Z,159687.78
2023-10-08T12:28:52.459Z,159729.22
2023-10-08T12:31:23.890Z,159681.06
2023-10-08T12:33:57.927Z,159670.41
2023-10-08T12:36:27.470Z,159667.69
2023-10-08T12:38:59.337Z,159686.47
2023-10-08T12:41:32.819Z,159627.66
2023-10-08T12:44:01.146Z,159657.03
2023-10-08T12:46:32.213Z,159635.66
2023-10-08T12:49:02.483Z,159623.63
2023-10-08T12:51:34.479Z,159607.63
2023-10-08T12:54:13.258Z,159554.19
2023-10-08T12:56:50.455Z,159503.44
2023-10-08T12:59:25.746Z,159471.38
2023-10-08T13:01:55.993Z,159498.09
2023-10-08T13:04:36.111Z,159515.47
2023-10-08T13:07:04.630Z,159555.50
2023-10-08T13:09:32.870Z,159564.88
2023-10-08T13:12:01.917Z,159544.84
2023-10-08T13:14:29.855Z,159574.22
2023-10-08T13:16:57.644Z,159587.56
2023-10-08T13:19:27.834Z,159622.31
2023-10-08T13:21:56.557Z,159631.63
2023-10-08T13:24:25.522Z,159591.56
2023-10-08T13:26:54.122Z,159592.94
2023-10-08T13:29:21.870Z,159578.19
2023-10-08T13:31:50.453Z,159564.88
2023-10-08T13:34:18.996Z,159551.53
2023-10-08T13:36:49.039Z,159588.91
2023-10-08T13:39:20.111Z,159606.25
2023-10-08T13:41:54.366Z,159612.91
2023-10-08T13:44:31.210Z,159600.94
2023-10-08T13:47:01.542Z,159622.31
2023-10-08T13:49:31.096Z,159611.59
2023-10-08T13:51:59.856Z,159566.22
2023-10-08T13:54:30.897Z,159560.84
2023-10-08T13:57:00.735Z,159534.13
2023-10-08T13:59:33.637Z,159506.09
2023-10-08T14:02:15.421Z,159520.78
2023-10-08T14:04:49.862Z,159516.81
2023-10-08T14:07:18.488Z,159524.81
2023-10-08T14:09:47.164Z,159534.13
2023-10-08T14:12:15.933Z,159532.81
2023-10-08T14:14:47.812Z,159542.16
2023-10-08T14:17:16.897Z,159543.53
2023-10-08T14:19:48.006Z,159551.53
2023-10-08T14:22:16.835Z,159548.81
2023-10-08T14:24:47.898Z,159546.19
2023-10-08T14:27:17.681Z,159570.19
2023-10-08T14:29:48.246Z,159547.50
2023-10-08T14:32:17.116Z,159539.50
2023-10-08T14:34:44.725Z,159516.81
2023-10-08T14:37:31.877Z,159524.81
2023-10-08T14:40:18.509Z,159514.09
2023-10-08T14:43:04.589Z,159507.44
2023-10-08T14:45:42.553Z,159507.44
2023-10-08T14:48:13.435Z,159496.78
2023-10-08T14:50:44.028Z,159494.13
2023-10-08T14:53:12.343Z,159486.06
2023-10-08T14:55:40.620Z,159483.41
2023-10-08T14:58:10.934Z,159478.06
2023-10-08T15:00:40.823Z,159470.06
2023-10-08T15:03:10.410Z,159451.34
2023-10-08T15:05:39.287Z,159416.69
2023-10-08T15:08:12.156Z,159403.34
2023-10-08T15:10:40.339Z,159419.34
2023-10-08T15:13:09.421Z,159410.00
2023-10-08T15:15:37.258Z,159397.97
2023-10-08T15:18:08.165Z,159376.63
2023-10-08T15:20:36.640Z,159363.28
2023-10-08T15:23:06.094Z,159332.59
2023-10-08T15:25:33.814Z,159343.25
2023-10-08T15:28:02.853Z,159320.56
2023-10-08T15:30:30.370Z,159305.91
2023-10-08T15:32:59.063Z,159297.91
2023-10-08T15:35:27.378Z,159271.19
2023-10-08T15:37:56.117Z,159268.50
2023-10-08T15:40:24.670Z,159256.47
2023-10-08T15:42:55.890Z,159233.81
2023-10-08T15:45:25.038Z,159209.75
2023-10-08T15:47:55.015Z,159193.75
2023-10-08T15:50:27.175Z,159187.09
2023-10-08T15:52:56.991Z,159160.41
2023-10-08T15:55:25.871Z,159161.72
2023-10-08T15:57:54.348Z,159129.75
2023-10-08T16:00:22.952Z,159121.75
2023-10-08T16:02:51.335Z,159115.06
2023-10-08T16:05:19.226Z,159092.41
2023-10-08T16:07:48.086Z,159079.06
2023-10-08T16:10:16.125Z,159049.69
2023-10-08T16:12:45.133Z,159057.72
2023-10-08T16:15:13.282Z,159048.34
2023-10-08T16:17:45.161Z,159037.72
2023-10-08T16:20:16.889Z,159017.72
2023-10-08T16:22:49.188Z,159000.34
2023-10-08T16:25:18.935Z,158989.69
2023-10-08T16:27:52.215Z,158976.38
2023-10-08T16:30:25.175Z,158957.69
2023-10-08T16:32:55.495Z,158947.03
2023-10-08T16:35:26.406Z,158933.72
2023-10-08T16:37:56.083Z,158925.72
2023-10-08T16:40:24.687Z,158909.72
2023-10-08T16:42:53.144Z,158871.06
2023-10-08T16:45:22.015Z,158877.72
2023-10-08T16:47:53.451Z,158856.41
2023-10-08T16:50:22.062Z,158837.72
2023-10-08T16:52:50.900Z,158813.75
2023-10-08T16:55:19.138Z,158792.41
2023-10-08T16:57:48.121Z,158771.06
2023-10-08T17:00:16.154Z,158757.72
2023-10-08T17:02:45.571Z,158736.41
2023-10-08T17:05:18.547Z,158709.75
2023-10-08T17:07:47.874Z,158711.06
2023-10-08T17:10:16.448Z,158696.41
2023-10-08T17:12:44.995Z,158672.47
2023-10-08T17:15:14.794Z,158667.13
2023-10-08T17:17:45.476Z,158655.13
2023-10-08T17:20:18.717Z,158629.84
2023-10-08T17:22:47.940Z,158617.81
2023-10-08T17:25:16.408Z,158615.19
2023-10-08T17:27:48.396Z,158600.53
2023-10-08T17:30:22.985Z,158597.84
2023-10-08T17:32:53.754Z,158577.84
2023-10-08T17:35:22.092Z,158587.22
2023-10-08T17:37:50.056Z,158573.88
2023-10-08T17:40:19.474Z,158563.22
2023-10-08T17:42:48.355Z,158553.91
2023-10-08T17:45:17.120Z,158544.59
2023-10-08T17:47:46.888Z,158529.94
2023-10-08T17:50:15.244Z,158523.28
2023-10-08T17:52:45.231Z,158532.59
2023-10-08T17:55:15.479Z,158529.94
2023-10-08T17:57:44.238Z,158536.63
2023-10-08T18:00:13.419Z,158544.59
2023-10-08T18:02:43.119Z,158545.91
2023-10-08T18:05:17.285Z,158548.56
2023-10-08T18:07:53.342Z,158540.59
2023-10-08T18:10:26.109Z,158531.28
2023-10-08T18:12:54.747Z,158529.94
2023-10-08T18:15:26.273Z,158541.91
2023-10-08T18:17:55.957Z,158533.91
2023-10-08T18:20:34.755Z,158541.91
2023-10-08T18:23:04.361Z,158516.63
2023-10-08T18:25:33.223Z,158527.25
2023-10-08T18:28:04.284Z,158505.94
2023-10-08T18:30:33.306Z,158490.00
2023-10-08T18:33:03.861Z,158474.03
2023-10-08T18:35:32.670Z,158466.00
2023-10-08T18:38:01.735Z,158459.38
2023-10-08T18:40:33.500Z,158454.03
2023-10-08T18:43:02.878Z,158451.34
2023-10-08T18:45:31.234Z,158438.06
2023-10-08T18:48:01.122Z,158435.38
2023-10-08T18:50:29.728Z,158436.72
2023-10-08T18:52:58.552Z,158416.72
2023-10-08T18:55:36.071Z,158424.75
2023-10-08T18:58:12.527Z,158408.75
2023-10-08T19:00:40.407Z,158400.78
2023-10-08T19:03:11.139Z,158391.47
2023-10-08T19:05:42.017Z,158387.44
2023-10-08T19:08:13.007Z,158379.47
2023-10-08T19:10:41.120Z,158374.13
2023-10-08T19:13:10.877Z,158358.19
2023-10-08T19:15:41.103Z,158338.19
2023-10-08T19:18:10.258Z,158320.91
2023-10-08T19:20:39.601Z,158308.94
2023-10-08T19:23:09.515Z,158292.97
2023-10-08T19:25:42.130Z,158270.38
2023-10-08T19:28:12.845Z,158247.69
2023-10-08T19:30:43.517Z,158231.75
2023-10-08T19:33:14.583Z,158203.81
2023-10-08T19:35:46.130Z,158154.59
2023-10-08T19:38:15.313Z,158139.91
2023-10-08T19:40:42.965Z,158139.91
2023-10-08T19:43:11.013Z,158129.28
2023-10-08T19:45:43.104Z,158115.97
2023-10-08T19:48:14.933Z,158105.31
2023-10-08T19:50:44.120Z,158080.06
2023-10-08T19:53:15.192Z,158078.69
2023-10-08T19:55:44.539Z,158054.78
2023-10-08T19:58:14.801Z,158032.19
2023-10-08T20:00:43.621Z,158021.53
2023-10-08T20:03:12.225Z,158005.59
2023-10-08T20:05:42.756Z,157975.00
2023-10-08T20:08:14.399Z,157952.38
2023-10-08T20:10:45.421Z,157956.38
2023-10-08T20:13:16.823Z,157947.09
2023-10-08T20:15:51.031Z,157924.44
2023-10-08T20:18:22.758Z,157919.19
2023-10-08T20:20:55.607Z,157912.53
2023-10-08T20:23:24.606Z,157903.19
2023-10-08T20:25:52.916Z,157895.22
2023-10-08T20:28:26.876Z,157881.91
2023-10-08T20:30:55.969Z,157873.94
2023-10-08T20:33:24.044Z,157858.00
2023-10-08T20:35:53.618Z,157850.03
2023-10-08T20:38:22.590Z,157815.47
2023-10-08T20:40:52.735Z,157814.16
2023-10-08T20:43:20.928Z,157812.78
2023-10-08T20:45:49.334Z,157766.31
2023-10-08T20:48:17.339Z,157778.28
2023-10-08T20:50:46.597Z,157772.97
2023-10-08T20:53:17.983Z,157761.00
2023-10-08T20:55:47.159Z,157751.69
2023-10-08T20:58:19.401Z,157741.03
2023-10-08T21:00:48.403Z,157734.41
2023-10-08T21:03:18.048Z,157711.81
2023-10-08T21:05:48.649Z,157709.19
2023-10-08T21:08:16.940Z,157713.13
2023-10-08T21:10:59.905Z,157698.53
2023-10-08T21:13:35.533Z,157706.50
2023-10-08T21:16:14.009Z,157706.50
2023-10-08T21:18:42.327Z,157679.97
2023-10-08T21:21:11.467Z,157690.56
2023-10-08T21:23:40.863Z,157678.59
2023-10-08T21:26:09.267Z,157685.25
2023-10-08T21:28:38.305Z,157678.59
2023-10-08T21:31:09.800Z,157668.00
2023-10-08T21:33:38.877Z,157658.66
2023-10-08T21:36:07.196Z,157648.06
2023-10-08T21:38:35.681Z,157641.41
2023-10-08T21:41:04.140Z,157613.53
2023-10-08T21:43:32.935Z,157610.88
2023-10-08T21:46:02.890Z,157605.56
2023-10-08T21:48:31.505Z,157593.59
2023-10-08T21:51:00.080Z,157572.34
2023-10-08T21:53:28.665Z,157555.09
2023-10-08T21:55:57.123Z,157553.78
2023-10-08T21:58:25.437Z,157555.09
2023-10-08T22:01:01.501Z,157536.50
2023-10-08T22:03:30.129Z,157545.78
2023-10-08T22:05:58.959Z,157529.84
2023-10-08T22:08:29.510Z,157523.22
2023-10-08T22:10:58.380Z,157500.66
2023-10-08T22:13:27.802Z,157492.69
2023-10-08T22:15:57.593Z,157486.03
2023-10-08T22:18:34.053Z,157474.06
2023-10-08T22:21:12.017Z,157459.47
2023-10-08T22:23:42.017Z,157450.19
2023-10-08T22:26:15.657Z,157423.63
2023-10-08T22:28:44.666Z,157414.38
2023-10-08T22:31:13.972Z,157393.13
2023-10-08T22:33:47.457Z,157377.16
2023-10-08T22:36:22.708Z,157358.63
2023-10-08T22:38:50.986Z,157332.06
2023-10-08T22:41:20.623Z,157314.78
2023-10-08T22:43:51.303Z,157289.59
2023-10-08T22:46:26.394Z,157271.00
2023-10-08T22:49:05.071Z,157253.78
2023-10-08T22:51:37.845Z,157241.81
2023-10-08T22:54:10.010Z,157231.19
2023-10-08T22:56:38.245Z,157217.94
2023-10-08T22:59:09.390Z,157212.63
2023-10-08T23:01:40.189Z,157206.00
2023-10-08T23:04:11.191Z,157199.38
2023-10-08T23:06:45.043Z,157190.09
2023-10-08T23:09:15.919Z,157186.09
2023-10-08T23:11:49.371Z,157175.50
2023-10-08T23:14:19.977Z,157164.88
2023-10-08T23:16:51.369Z,157150.28
2023-10-08T23:19:23.020Z,157142.34
2023-10-08T23:21:53.407Z,157133.00
2023-10-08T23:24:24.516Z,157123.75
2023-10-08T23:26:53.057Z,157125.06
2023-10-08T23:29:21.527Z,157117.09
2023-10-08T23:31:50.596Z,157109.16
2023-10-08T23:34:19.100Z,157106.53
2023-10-08T23:36:52.956Z,157097.22
2023-10-08T23:39:27.591Z,157080.00
2023-10-08T23:42:03.050Z,157060.09
2023-10-08T23:44:35.224Z,157057.47
2023-10-08T23:47:05.917Z,157069.34
2023-10-08T23:49:48.792Z,157060.09
2023-10-08T23:52:24.925Z,157048.16
2023-10-08T23:55:02.579Z,157048.16
2023-10-08T23:57:49.763Z,157038.88
